sensor_id;sensor_type;location;lat;lon;timestamp;pressure;altitude;pressure_sealevel;temperature;humidity
29247;BME280;16272;48.188;9.964;2024-03-02T00:00:53;94694.31;;;3.22;94.50
29247;BME280;16272;48.188;9.964;2024-03-02T00:03:19;94705.69;;;3.42;93.19
29247;BME280;16272;48.188;9.964;2024-03-02T00:05:49;94708.00;;;3.35;93.17
29247;BME280;16272;48.188;9.964;2024-03-02T00:08:25;94705.38;;;3.35;93.06
29247;BME280;16272;48.188;9.964;2024-03-02T00:10:51;94698.47;;;3.34;93.82
29247;BME280;16272;48.188;9.964;2024-03-02T00:13:20;94707.63;;;3.40;92.99
29247;BME280;16272;48.188;9.964;2024-03-02T00:15:52;94709.00;;;3.54;91.61
29247;BME280;16272;48.188;9.964;2024-03-02T00:20:53;94710.41;;;3.58;92.31
29247;BME280;16272;48.188;9.964;2024-03-02T00:23:20;94702.97;;;3.63;91.20
29247;BME280;16272;48.188;9.964;2024-03-02T00:25:53;94700.16;;;3.45;91.88
29247;BME280;16272;48.188;9.964;2024-03-02T00:28:27;94702.91;;;3.43;92.79
29247;BME280;16272;48.188;9.964;2024-03-02T00:31:11;94706.63;;;3.41;93.74
29247;BME280;16272;48.188;9.964;2024-03-02T00:33:41;94708.13;;;3.24;93.87
29247;BME280;16272;48.188;9.964;2024-03-02T00:36:07;94704.66;;;3.23;94.37
29247;BME280;16272;48.188;9.964;2024-03-02T00:38:34;94703.88;;;3.42;92.94
29247;BME280;16272;48.188;9.964;2024-03-02T00:41:07;94710.69;;;3.55;92.45
29247;BME280;16272;48.188;9.964;2024-03-02T00:43:45;94711.47;;;3.45;91.41
29247;BME280;16272;48.188;9.964;2024-03-02T00:46:12;94701.50;;;3.39;91.92
29247;BME280;16272;48.188;9.964;2024-03-02T00:48:40;94701.16;;;3.13;93.92
29247;BME280;16272;48.188;9.964;2024-03-02T00:51:07;94706.03;;;3.18;93.48
29247;BME280;16272;48.188;9.964;2024-03-02T00:53:33;94705.34;;;3.16;92.09
29247;BME280;16272;48.188;9.964;2024-03-02T00:55:59;94705.22;;;2.86;93.20
29247;BME280;16272;48.188;9.964;2024-03-02T00:58:25;94696.44;;;2.97;92.94
29247;BME280;16272;48.188;9.964;2024-03-02T01:00:50;94700.13;;;2.94;92.83
29247;BME280;16272;48.188;9.964;2024-03-02T01:03:15;94699.16;;;2.86;93.74
29247;BME280;16272;48.188;9.964;2024-03-02T01:05:41;94699.81;;;2.78;93.49
29247;BME280;16272;48.188;9.964;2024-03-02T01:08:07;94706.84;;;2.78;94.12
29247;BME280;16272;48.188;9.964;2024-03-02T01:10:32;94700.78;;;2.87;94.81
29247;BME280;16272;48.188;9.964;2024-03-02T01:12:58;94693.84;;;3.07;94.33
29247;BME280;16272;48.188;9.964;2024-03-02T01:15:23;94706.19;;;3.26;92.38
29247;BME280;16272;48.188;9.964;2024-03-02T01:17:48;94703.19;;;3.40;92.04
29247;BME280;16272;48.188;9.964;2024-03-02T01:20:14;94706.19;;;3.26;91.67
29247;BME280;16272;48.188;9.964;2024-03-02T01:22:39;94710.47;;;3.27;92.35
29247;BME280;16272;48.188;9.964;2024-03-02T01:25:04;94713.38;;;3.24;91.64
29247;BME280;16272;48.188;9.964;2024-03-02T01:27:30;94714.47;;;3.31;91.52
29247;BME280;16272;48.188;9.964;2024-03-02T01:29:55;94714.63;;;3.29;93.23
29247;BME280;16272;48.188;9.964;2024-03-02T01:32:20;94715.34;;;3.41;93.23
29247;BME280;16272;48.188;9.964;2024-03-02T01:34:46;94713.38;;;3.24;93.88
29247;BME280;16272;48.188;9.964;2024-03-02T01:37:11;94717.41;;;2.97;94.22
29247;BME280;16272;48.188;9.964;2024-03-02T01:39:36;94716.28;;;2.90;93.75
29247;BME280;16272;48.188;9.964;2024-03-02T01:42:02;94721.38;;;2.91;94.03
29247;BME280;16272;48.188;9.964;2024-03-02T01:44:27;94720.03;;;2.97;93.34
29247;BME280;16272;48.188;9.964;2024-03-02T01:46:52;94715.00;;;2.84;93.93
29247;BME280;16272;48.188;9.964;2024-03-02T01:49:17;94714.91;;;2.65;94.98
29247;BME280;16272;48.188;9.964;2024-03-02T01:51:44;94720.38;;;2.83;95.37
29247;BME280;16272;48.188;9.964;2024-03-02T01:54:09;94721.34;;;3.12;93.82
29247;BME280;16272;48.188;9.964;2024-03-02T01:56:34;94722.31;;;3.21;91.62
29247;BME280;16272;48.188;9.964;2024-03-02T01:58:59;94724.28;;;3.29;91.57
29247;BME280;16272;48.188;9.964;2024-03-02T02:01:25;94718.63;;;3.24;93.15
29247;BME280;16272;48.188;9.964;2024-03-02T02:03:50;94723.03;;;3.23;93.57
29247;BME280;16272;48.188;9.964;2024-03-02T02:06:15;94723.28;;;3.10;93.30
29247;BME280;16272;48.188;9.964;2024-03-02T02:08:41;94722.50;;;3.39;92.41
29247;BME280;16272;48.188;9.964;2024-03-02T02:11:40;94720.59;;;3.41;91.13
29247;BME280;16272;48.188;9.964;2024-03-02T02:14:06;94719.69;;;3.21;93.17
29247;BME280;16272;48.188;9.964;2024-03-02T02:16:31;94722.63;;;3.18;93.54
29247;BME280;16272;48.188;9.964;2024-03-02T02:18:56;94725.06;;;3.20;93.29
29247;BME280;16272;48.188;9.964;2024-03-02T02:21:22;94725.63;;;3.13;93.04
29247;BME280;16272;48.188;9.964;2024-03-02T02:23:48;94724.56;;;2.95;93.68
29247;BME280;16272;48.188;9.964;2024-03-02T02:26:13;94724.06;;;3.01;92.74
29247;BME280;16272;48.188;9.964;2024-03-02T02:28:39;94725.69;;;2.92;93.24
29247;BME280;16272;48.188;9.964;2024-03-02T02:31:11;94715.56;;;2.88;93.63
29247;BME280;16272;48.188;9.964;2024-03-02T02:33:39;94716.53;;;2.87;93.96
29247;BME280;16272;48.188;9.964;2024-03-02T02:36:04;94717.06;;;2.81;93.79
29247;BME280;16272;48.188;9.964;2024-03-02T02:38:30;94716.81;;;2.84;93.84
29247;BME280;16272;48.188;9.964;2024-03-02T02:40:57;94714.81;;;2.97;93.46
29247;BME280;16272;48.188;9.964;2024-03-02T02:43:23;94717.78;;;2.83;93.64
29247;BME280;16272;48.188;9.964;2024-03-02T02:45:48;94705.31;;;2.75;94.68
29247;BME280;16272;48.188;9.964;2024-03-02T02:48:13;94707.91;;;2.75;94.76
29247;BME280;16272;48.188;9.964;2024-03-02T02:50:39;94707.97;;;2.85;94.52
29247;BME280;16272;48.188;9.964;2024-03-02T02:53:05;94698.66;;;3.02;93.80
29247;BME280;16272;48.188;9.964;2024-03-02T02:55:31;94708.56;;;2.98;94.13
29247;BME280;16272;48.188;9.964;2024-03-02T02:57:56;94705.34;;;2.85;95.56
29247;BME280;16272;48.188;9.964;2024-03-02T03:00:21;94709.63;;;2.86;95.66
29247;BME280;16272;48.188;9.964;2024-03-02T03:02:49;94717.41;;;2.97;95.50
29247;BME280;16272;48.188;9.964;2024-03-02T03:05:16;94708.66;;;2.87;95.50
29247;BME280;16272;48.188;9.964;2024-03-02T03:07:42;94702.97;;;2.82;95.48
29247;BME280;16272;48.188;9.964;2024-03-02T03:10:09;94702.63;;;2.65;96.68
29247;BME280;16272;48.188;9.964;2024-03-02T03:12:35;94705.16;;;2.76;96.35
29247;BME280;16272;48.188;9.964;2024-03-02T03:15:01;94708.78;;;2.75;96.54
29247;BME280;16272;48.188;9.964;2024-03-02T03:17:27;94699.31;;;2.63;97.27
29247;BME280;16272;48.188;9.964;2024-03-02T03:19:52;94704.03;;;2.69;97.67
29247;BME280;16272;48.188;9.964;2024-03-02T03:22:18;94704.03;;;2.69;97.58
29247;BME280;16272;48.188;9.964;2024-03-02T03:24:43;94698.06;;;2.57;98.42
29247;BME280;16272;48.188;9.964;2024-03-02T03:27:09;94704.00;;;2.60;99.13
29247;BME280;16272;48.188;9.964;2024-03-02T03:29:36;94696.50;;;2.55;99.35
29247;BME280;16272;48.188;9.964;2024-03-02T03:32:01;94700.06;;;2.75;98.00
29247;BME280;16272;48.188;9.964;2024-03-02T03:34:26;94705.44;;;2.73;96.72
29247;BME280;16272;48.188;9.964;2024-03-02T03:36:54;94700.22;;;2.83;96.06
29247;BME280;16272;48.188;9.964;2024-03-02T03:39:19;94697.75;;;2.82;95.54
29247;BME280;16272;48.188;9.964;2024-03-02T03:41:44;94695.03;;;2.62;99.08
29247;BME280;16272;48.188;9.964;2024-03-02T03:44:09;94696.69;;;2.63;100.00
29247;BME280;16272;48.188;9.964;2024-03-02T03:46:35;94698.53;;;2.72;100.00
29247;BME280;16272;48.188;9.964;2024-03-02T03:49:00;94699.31;;;2.63;100.00
29247;BME280;16272;48.188;9.964;2024-03-02T03:51:25;94701.59;;;2.78;99.07
29247;BME280;16272;48.188;9.964;2024-03-02T03:53:50;94692.66;;;2.90;98.28
29247;BME280;16272;48.188;9.964;2024-03-02T03:56:16;94696.66;;;2.84;97.62
29247;BME280;16272;48.188;9.964;2024-03-02T03:58:41;94696.19;;;2.69;99.06
29247;BME280;16272;48.188;9.964;2024-03-02T04:01:06;94695.81;;;2.53;100.00
29247;BME280;16272;48.188;9.964;2024-03-02T04:03:31;94705.59;;;2.51;100.00
29247;BME280;16272;48.188;9.964;2024-03-02T04:05:57;94700.63;;;2.48;100.00
29247;BME280;16272;48.188;9.964;2024-03-02T04:08:22;94711.50;;;2.43;100.00
29247;BME280;16272;48.188;9.964;2024-03-02T04:10:47;94705.09;;;2.36;100.00
29247;BME280;16272;48.188;9.964;2024-03-02T04:13:13;94701.31;;;2.29;100.00
29247;BME280;16272;48.188;9.964;2024-03-02T04:15:39;94697.63;;;2.31;100.00
29247;BME280;16272;48.188;9.964;2024-03-02T04:18:05;94702.16;;;2.29;100.00
29247;BME280;16272;48.188;9.964;2024-03-02T04:20:31;94700.25;;;2.31;100.00
29247;BME280;16272;48.188;9.964;2024-03-02T04:22:56;94706.63;;;2.38;100.00
29247;BME280;16272;48.188;9.964;2024-03-02T04:25:21;94704.06;;;2.48;100.00
29247;BME280;16272;48.188;9.964;2024-03-02T04:27:46;94702.34;;;2.37;100.00
29247;BME280;16272;48.188;9.964;2024-03-02T04:30:12;94699.66;;;2.28;100.00
29247;BME280;16272;48.188;9.964;2024-03-02T04:32:37;94699.97;;;2.34;100.00
29247;BME280;16272;48.188;9.964;2024-03-02T04:35:04;94707.75;;;2.46;100.00
29247;BME280;16272;48.188;9.964;2024-03-02T04:37:29;94700.63;;;2.48;100.00
29247;BME280;16272;48.188;9.964;2024-03-02T04:39:56;94706.66;;;2.69;100.00
29247;BME280;16272;48.188;9.964;2024-03-02T04:42:21;94720.78;;;3.09;98.28
29247;BME280;16272;48.188;9.964;2024-03-02T04:44:47;94712.88;;;2.99;97.95
29247;BME280;16272;48.188;9.964;2024-03-02T04:47:13;94710.81;;;3.03;96.26
29247;BME280;16272;48.188;9.964;2024-03-02T04:49:38;94714.81;;;2.97;94.97
29247;BME280;16272;48.188;9.964;2024-03-02T04:52:03;94720.34;;;3.04;95.68
29247;BME280;16272;48.188;9.964;2024-03-02T04:54:29;94716.94;;;3.23;95.96
29247;BME280;16272;48.188;9.964;2024-03-02T04:56:54;94724.97;;;3.31;95.13
29247;BME280;16272;48.188;9.964;2024-03-02T04:59:19;94722.34;;;3.31;94.60
29247;BME280;16272;48.188;9.964;2024-03-02T05:01:45;94724.16;;;3.30;93.95
29247;BME280;16272;48.188;9.964;2024-03-02T05:04:11;94724.72;;;3.34;93.52
29247;BME280;16272;48.188;9.964;2024-03-02T05:06:37;94716.69;;;3.26;94.99
29247;BME280;16272;48.188;9.964;2024-03-02T05:09:04;94719.03;;;2.57;96.92
29247;BME280;16272;48.188;9.964;2024-03-02T05:11:29;94731.91;;;2.70;96.70
29247;BME280;16272;48.188;9.964;2024-03-02T05:14:17;94726.75;;;2.90;96.16
29247;BME280;16272;48.188;9.964;2024-03-02T05:16:42;94730.38;;;2.89;95.97
29247;BME280;16272;48.188;9.964;2024-03-02T05:19:08;94722.88;;;2.84;94.94
29247;BME280;16272;48.188;9.964;2024-03-02T05:21:33;94727.13;;;2.75;94.03
29247;BME280;16272;48.188;9.964;2024-03-02T05:23:59;94725.03;;;2.69;93.10
29247;BME280;16272;48.188;9.964;2024-03-02T05:26:25;94725.03;;;2.69;93.21
29247;BME280;16272;48.188;9.964;2024-03-02T05:28:50;94726.59;;;2.82;92.21
29247;BME280;16272;48.188;9.964;2024-03-02T05:31:16;94727.31;;;2.84;92.20
29247;BME280;16272;48.188;9.964;2024-03-02T05:33:42;94720.13;;;2.86;93.53
29247;BME280;16272;48.188;9.964;2024-03-02T05:36:07;94719.53;;;2.72;93.51
29247;BME280;16272;48.188;9.964;2024-03-02T05:38:36;94720.53;;;2.60;94.00
29247;BME280;16272;48.188;9.964;2024-03-02T05:41:02;94723.97;;;2.61;94.75
29247;BME280;16272;48.188;9.964;2024-03-02T05:43:27;94726.16;;;2.76;94.27
29247;BME280;16272;48.188;9.964;2024-03-02T05:45:53;94730.63;;;2.86;92.42
29247;BME280;16272;48.188;9.964;2024-03-02T05:48:18;94730.00;;;2.72;91.49
29247;BME280;16272;48.188;9.964;2024-03-02T05:50:44;94741.69;;;2.68;93.16
29247;BME280;16272;48.188;9.964;2024-03-02T05:53:09;94737.50;;;2.87;92.64
29247;BME280;16272;48.188;9.964;2024-03-02T05:55:35;94742.06;;;2.85;94.03
29247;BME280;16272;48.188;9.964;2024-03-02T05:58:00;94743.66;;;2.97;92.83
29247;BME280;16272;48.188;9.964;2024-03-02T06:00:32;94744.34;;;2.99;92.46
29247;BME280;16272;48.188;9.964;2024-03-02T06:02:58;94748.91;;;2.97;91.57
29247;BME280;16272;48.188;9.964;2024-03-02T06:05:23;94756.47;;;2.69;91.98
29247;BME280;16272;48.188;9.964;2024-03-02T06:07:50;94755.00;;;2.76;91.23
29247;BME280;16272;48.188;9.964;2024-03-02T06:10:15;94749.81;;;2.65;92.51
29247;BME280;16272;48.188;9.964;2024-03-02T06:12:40;94747.38;;;2.73;94.30
29247;BME280;16272;48.188;9.964;2024-03-02T06:15:06;94745.19;;;2.79;91.72
29247;BME280;16272;48.188;9.964;2024-03-02T06:17:32;94747.19;;;2.86;91.52
29247;BME280;16272;48.188;9.964;2024-03-02T06:19:57;94743.88;;;3.15;91.09
29247;BME280;16272;48.188;9.964;2024-03-02T06:22:23;94747.38;;;3.35;89.48
29247;BME280;16272;48.188;9.964;2024-03-02T06:24:50;94742.63;;;3.19;89.97
29247;BME280;16272;48.188;9.964;2024-03-02T06:27:15;94746.22;;;3.28;89.56
29247;BME280;16272;48.188;9.964;2024-03-02T06:29:41;94754.06;;;3.08;90.43
29247;BME280;16272;48.188;9.964;2024-03-02T06:32:07;94748.91;;;2.97;91.58
29247;BME280;16272;48.188;9.964;2024-03-02T06:34:32;94753.03;;;3.00;91.34
29247;BME280;16272;48.188;9.964;2024-03-02T06:36:57;94765.25;;;3.10;91.11
29247;BME280;16272;48.188;9.964;2024-03-02T06:39:22;94760.38;;;3.06;91.27
29247;BME280;16272;48.188;9.964;2024-03-02T06:41:48;94761.75;;;3.00;92.25
29247;BME280;16272;48.188;9.964;2024-03-02T06:44:13;94763.81;;;3.06;91.28
29247;BME280;16272;48.188;9.964;2024-03-02T06:46:38;94769.06;;;3.06;91.89
29247;BME280;16272;48.188;9.964;2024-03-02T06:49:04;94762.06;;;3.07;92.61
29247;BME280;16272;48.188;9.964;2024-03-02T06:51:29;94761.00;;;3.19;92.13
29247;BME280;16272;48.188;9.964;2024-03-02T06:53:55;94762.00;;;3.38;91.08
29247;BME280;16272;48.188;9.964;2024-03-02T06:56:20;94765.63;;;3.37;91.97
29247;BME280;16272;48.188;9.964;2024-03-02T06:58:46;94768.47;;;3.24;90.66
29247;BME280;16272;48.188;9.964;2024-03-02T07:01:12;94766.72;;;3.34;90.32
29247;BME280;16272;48.188;9.964;2024-03-02T07:03:37;94764.81;;;3.36;91.94
29247;BME280;16272;48.188;9.964;2024-03-02T07:06:04;94773.28;;;3.19;92.49
29247;BME280;16272;48.188;9.964;2024-03-02T07:08:29;94772.63;;;3.26;91.81
29247;BME280;16272;48.188;9.964;2024-03-02T07:10:55;94771.66;;;3.68;91.14
29247;BME280;16272;48.188;9.964;2024-03-02T07:13:20;94773.75;;;3.84;90.81
29247;BME280;16272;48.188;9.964;2024-03-02T07:15:45;94768.78;;;3.91;90.36
29247;BME280;16272;48.188;9.964;2024-03-02T07:18:29;94768.34;;;3.66;92.08
29247;BME280;16272;48.188;9.964;2024-03-02T07:20:56;94768.25;;;3.87;91.98
29247;BME280;16272;48.188;9.964;2024-03-02T07:23:23;94769.22;;;3.96;91.59
29247;BME280;16272;48.188;9.964;2024-03-02T07:25:52;94764.34;;;3.31;91.89
29247;BME280;16272;48.188;9.964;2024-03-02T07:28:19;94763.75;;;3.58;92.15
29247;BME280;16272;48.188;9.964;2024-03-02T07:30:45;94760.34;;;3.27;92.90
29247;BME280;16272;48.188;9.964;2024-03-02T07:33:10;94763.25;;;3.74;94.02
29247;BME280;16272;48.188;9.964;2024-03-02T07:35:36;94759.56;;;3.46;92.71
29247;BME280;16272;48.188;9.964;2024-03-02T07:38:01;94767.09;;;3.70;91.77
29247;BME280;16272;48.188;9.964;2024-03-02T07:40:26;94763.91;;;3.66;91.78
29247;BME280;16272;48.188;9.964;2024-03-02T07:42:52;94767.13;;;3.39;91.72
29247;BME280;16272;48.188;9.964;2024-03-02T07:45:17;94762.69;;;4.00;93.12
29247;BME280;16272;48.188;9.964;2024-03-02T07:47:42;94771.97;;;3.94;91.00
29247;BME280;16272;48.188;9.964;2024-03-02T07:50:08;94780.47;;;3.67;90.65
29247;BME280;16272;48.188;9.964;2024-03-02T07:52:34;94781.72;;;3.63;91.51
29247;BME280;16272;48.188;9.964;2024-03-02T07:54:59;94777.59;;;3.70;90.44
29247;BME280;16272;48.188;9.964;2024-03-02T07:57:25;94776.25;;;3.85;91.11
29247;BME280;16272;48.188;9.964;2024-03-02T07:59:50;94777.25;;;4.14;91.80
29247;BME280;16272;48.188;9.964;2024-03-02T08:02:16;94786.50;;;4.37;89.66
29247;BME280;16272;48.188;9.964;2024-03-02T08:04:41;94779.88;;;4.04;89.68
29247;BME280;16272;48.188;9.964;2024-03-02T08:07:07;94783.16;;;3.86;90.63
29247;BME280;16272;48.188;9.964;2024-03-02T08:09:33;94783.59;;;4.11;89.93
29247;BME280;16272;48.188;9.964;2024-03-02T08:11:58;94788.25;;;3.78;92.85
29247;BME280;16272;48.188;9.964;2024-03-02T08:14:24;94786.03;;;3.83;93.02
29247;BME280;16272;48.188;9.964;2024-03-02T08:16:49;94782.88;;;3.90;92.33
29247;BME280;16272;48.188;9.964;2024-03-02T08:19:15;94786.47;;;3.89;92.25
29247;BME280;16272;48.188;9.964;2024-03-02T08:21:40;94780.28;;;4.29;93.32
29247;BME280;16272;48.188;9.964;2024-03-02T08:24:06;94780.56;;;4.45;92.20
29247;BME280;16272;48.188;9.964;2024-03-02T08:26:32;94784.84;;;4.66;90.64
29247;BME280;16272;48.188;9.964;2024-03-02T08:28:58;94779.59;;;4.46;90.38
29247;BME280;16272;48.188;9.964;2024-03-02T08:31:23;94777.50;;;4.79;89.76
29247;BME280;16272;48.188;9.964;2024-03-02T08:33:49;94775.03;;;4.38;89.01
29247;BME280;16272;48.188;9.964;2024-03-02T08:36:14;94772.41;;;4.19;92.14
29247;BME280;16272;48.188;9.964;2024-03-02T08:38:40;94777.38;;;4.61;92.60
29247;BME280;16272;48.188;9.964;2024-03-02T08:41:06;94773.50;;;4.36;91.38
29247;BME280;16272;48.188;9.964;2024-03-02T08:43:32;94772.81;;;4.14;92.87
29247;BME280;16272;48.188;9.964;2024-03-02T08:45:58;94775.84;;;4.49;93.17
29247;BME280;16272;48.188;9.964;2024-03-02T08:48:23;94778.63;;;4.57;92.61
29247;BME280;16272;48.188;9.964;2024-03-02T08:50:49;94769.72;;;4.87;92.14
29247;BME280;16272;48.188;9.964;2024-03-02T08:53:14;94771.59;;;5.42;91.84
29247;BME280;16272;48.188;9.964;2024-03-02T08:55:44;94766.66;;;5.85;88.50
29247;BME280;16272;48.188;9.964;2024-03-02T08:58:09;94767.72;;;5.46;88.87
29247;BME280;16272;48.188;9.964;2024-03-02T09:00:35;94762.41;;;5.56;88.53
29247;BME280;16272;48.188;9.964;2024-03-02T09:03:00;94766.91;;;5.92;88.95
29247;BME280;16272;48.188;9.964;2024-03-02T09:05:26;94756.25;;;5.65;89.86
29247;BME280;16272;48.188;9.964;2024-03-02T09:07:51;94751.44;;;6.06;90.08
29247;BME280;16272;48.188;9.964;2024-03-02T09:10:16;94756.06;;;5.95;88.52
29247;BME280;16272;48.188;9.964;2024-03-02T09:12:42;94755.16;;;6.14;89.05
29247;BME280;16272;48.188;9.964;2024-03-02T09:15:08;94757.13;;;6.30;87.61
29247;BME280;16272;48.188;9.964;2024-03-02T09:17:33;94758.00;;;6.02;87.53
29247;BME280;16272;48.188;9.964;2024-03-02T09:19:59;94751.16;;;5.82;86.17
29247;BME280;16272;48.188;9.964;2024-03-02T09:22:24;94755.38;;;5.75;85.96
29247;BME280;16272;48.188;9.964;2024-03-02T09:24:49;94745.13;;;6.17;88.16
29247;BME280;16272;48.188;9.964;2024-03-02T09:27:14;94759.47;;;6.59;86.09
29247;BME280;16272;48.188;9.964;2024-03-02T09:29:40;94750.81;;;6.67;87.19
29247;BME280;16272;48.188;9.964;2024-03-02T09:32:06;94739.16;;;6.95;86.89
29247;BME280;16272;48.188;9.964;2024-03-02T09:34:32;94743.22;;;7.16;87.92
29247;BME280;16272;48.188;9.964;2024-03-02T09:36:58;94743.56;;;6.95;86.50
29247;BME280;16272;48.188;9.964;2024-03-02T09:39:23;94732.97;;;7.47;85.04
29247;BME280;16272;48.188;9.964;2024-03-02T09:41:50;94731.75;;;8.60;81.92
29247;BME280;16272;48.188;9.964;2024-03-02T09:44:16;94731.25;;;7.30;82.61
29247;BME280;16272;48.188;9.964;2024-03-02T09:46:41;94728.84;;;7.96;82.02
29247;BME280;16272;48.188;9.964;2024-03-02T09:49:09;94719.63;;;8.24;80.65
29247;BME280;16272;48.188;9.964;2024-03-02T09:51:35;94730.56;;;9.04;79.94
29247;BME280;16272;48.188;9.964;2024-03-02T09:54:01;94724.28;;;8.80;79.43
29247;BME280;16272;48.188;9.964;2024-03-02T09:56:27;94724.44;;;8.87;79.32
29247;BME280;16272;48.188;9.964;2024-03-02T09:58:53;94723.50;;;9.44;79.00
29247;BME280;16272;48.188;9.964;2024-03-02T10:01:18;94723.97;;;9.47;76.76
29247;BME280;16272;48.188;9.964;2024-03-02T10:03:44;94730.94;;;8.76;79.71
29247;BME280;16272;48.188;9.964;2024-03-02T10:06:29;94718.19;;;9.44;77.85
29247;BME280;16272;48.188;9.964;2024-03-02T10:08:55;94719.09;;;9.59;76.61
29247;BME280;16272;48.188;9.964;2024-03-02T10:11:30;94725.13;;;8.48;78.52
29247;BME280;16272;48.188;9.964;2024-03-02T10:14:13;94715.94;;;9.24;79.63
29247;BME280;16272;48.188;9.964;2024-03-02T10:16:44;94709.28;;;9.36;78.42
29247;BME280;16272;48.188;9.964;2024-03-02T10:19:23;94708.72;;;8.77;80.59
29247;BME280;16272;48.188;9.964;2024-03-02T10:21:50;94704.41;;;9.88;77.53
29247;BME280;16272;48.188;9.964;2024-03-02T10:24:19;94701.78;;;8.92;80.64
29247;BME280;16272;48.188;9.964;2024-03-02T10:26:45;94698.16;;;9.33;79.83
29247;BME280;16272;48.188;9.964;2024-03-02T10:29:11;94692.81;;;9.49;78.19
29247;BME280;16272;48.188;9.964;2024-03-02T10:31:38;94688.84;;;9.53;78.56
29247;BME280;16272;48.188;9.964;2024-03-02T10:34:03;94691.22;;;9.71;77.13
29247;BME280;16272;48.188;9.964;2024-03-02T10:36:29;94688.06;;;10.54;75.00
29247;BME280;16272;48.188;9.964;2024-03-02T10:38:56;94688.81;;;11.15;73.91
29247;BME280;16272;48.188;9.964;2024-03-02T10:41:24;94686.22;;;11.67;73.00
29247;BME280;16272;48.188;9.964;2024-03-02T10:43:52;94688.41;;;9.73;76.76
29247;BME280;16272;48.188;9.964;2024-03-02T10:46:19;94685.34;;;10.62;77.21
29247;BME280;16272;48.188;9.964;2024-03-02T10:48:46;94681.69;;;10.63;75.18
29247;BME280;16272;48.188;9.964;2024-03-02T10:51:12;94674.34;;;11.63;73.33
29247;BME280;16272;48.188;9.964;2024-03-02T10:53:37;94662.13;;;12.05;71.57
29247;BME280;16272;48.188;9.964;2024-03-02T10:56:05;94655.44;;;12.80;68.73
29247;BME280;16272;48.188;9.964;2024-03-02T10:58:33;94647.91;;;13.19;69.04
29247;BME280;16272;48.188;9.964;2024-03-02T11:01:03;94636.53;;;13.03;69.59
29247;BME280;16272;48.188;9.964;2024-03-02T11:03:35;94639.88;;;12.56;68.76
29247;BME280;16272;48.188;9.964;2024-03-02T11:06:03;94629.50;;;13.24;69.72
29247;BME280;16272;48.188;9.964;2024-03-02T11:08:33;94620.66;;;13.17;71.32
29247;BME280;16272;48.188;9.964;2024-03-02T11:11:12;94610.91;;;13.86;69.44
29247;BME280;16272;48.188;9.964;2024-03-02T11:13:42;94621.84;;;12.79;69.00
29247;BME280;16272;48.188;9.964;2024-03-02T11:16:20;94602.22;;;13.22;68.45
29247;BME280;16272;48.188;9.964;2024-03-02T11:18:51;94608.88;;;14.01;68.02
29247;BME280;16272;48.188;9.964;2024-03-02T11:21:17;94608.72;;;12.28;69.33
29247;BME280;16272;48.188;9.964;2024-03-02T11:23:43;94595.72;;;12.40;67.19
29247;BME280;16272;48.188;9.964;2024-03-02T11:26:21;94601.72;;;11.99;67.46
29247;BME280;16272;48.188;9.964;2024-03-02T11:28:48;94592.16;;;12.32;67.96
29247;BME280;16272;48.188;9.964;2024-03-02T11:31:14;94584.13;;;12.76;63.08
29247;BME280;16272;48.188;9.964;2024-03-02T11:33:39;94586.69;;;12.97;64.43
29247;BME280;16272;48.188;9.964;2024-03-02T11:36:06;94574.13;;;13.74;64.10
29247;BME280;16272;48.188;9.964;2024-03-02T11:38:33;94576.75;;;13.61;63.20
29247;BME280;16272;48.188;9.964;2024-03-02T11:41:05;94573.25;;;13.12;63.37
29247;BME280;16272;48.188;9.964;2024-03-02T11:43:32;94575.78;;;13.27;65.76
29247;BME280;16272;48.188;9.964;2024-03-02T11:45:59;94561.84;;;13.93;62.40
29247;BME280;16272;48.188;9.964;2024-03-02T11:48:26;94560.44;;;14.04;60.84
29247;BME280;16272;48.188;9.964;2024-03-02T11:50:52;94564.88;;;12.87;62.05
29247;BME280;16272;48.188;9.964;2024-03-02T11:53:18;94543.03;;;13.33;67.29
29247;BME280;16272;48.188;9.964;2024-03-02T11:55:44;94548.19;;;13.48;63.39
29247;BME280;16272;48.188;9.964;2024-03-02T11:58:12;94541.69;;;13.71;61.21
29247;BME280;16272;48.188;9.964;2024-03-02T12:00:37;94541.03;;;13.55;58.98
29247;BME280;16272;48.188;9.964;2024-03-02T12:03:08;94529.50;;;13.35;60.50
29247;BME280;16272;48.188;9.964;2024-03-02T12:05:34;94529.69;;;12.98;59.56
29247;BME280;16272;48.188;9.964;2024-03-02T12:08:01;94522.94;;;13.51;62.00
29247;BME280;16272;48.188;9.964;2024-03-02T12:10:27;94520.38;;;13.77;62.36
29247;BME280;16272;48.188;9.964;2024-03-02T12:12:59;94524.69;;;14.39;60.77
29247;BME280;16272;48.188;9.964;2024-03-02T12:15:33;94527.22;;;12.97;60.60
29247;BME280;16272;48.188;9.964;2024-03-02T12:18:00;94525.94;;;12.79;63.25
29247;BME280;16272;48.188;9.964;2024-03-02T12:20:27;94508.66;;;13.78;60.64
29247;BME280;16272;48.188;9.964;2024-03-02T12:22:55;94509.28;;;14.67;60.13
29247;BME280;16272;48.188;9.964;2024-03-02T12:25:22;94507.41;;;15.78;58.25
29247;BME280;16272;48.188;9.964;2024-03-02T12:27:49;94494.69;;;14.57;57.84
29247;BME280;16272;48.188;9.964;2024-03-02T12:30:16;94503.69;;;14.76;59.71
29247;BME280;16272;48.188;9.964;2024-03-02T12:32:42;94504.16;;;14.12;58.59
29247;BME280;16272;48.188;9.964;2024-03-02T12:35:07;94504.91;;;14.86;59.07
29247;BME280;16272;48.188;9.964;2024-03-02T12:37:33;94496.66;;;15.01;58.79
29247;BME280;16272;48.188;9.964;2024-03-02T12:39:59;94493.34;;;15.06;57.56
29247;BME280;16272;48.188;9.964;2024-03-02T12:42:24;94484.25;;;14.35;59.88
29247;BME280;16272;48.188;9.964;2024-03-02T12:44:53;94480.34;;;14.24;59.36
29247;BME280;16272;48.188;9.964;2024-03-02T12:47:21;94475.78;;;14.58;59.49
29247;BME280;16272;48.188;9.964;2024-03-02T12:49:47;94468.03;;;14.30;59.59
29247;BME280;16272;48.188;9.964;2024-03-02T12:52:13;94463.72;;;15.07;57.60
29247;BME280;16272;48.188;9.964;2024-03-02T12:54:39;94465.31;;;14.63;57.58
29247;BME280;16272;48.188;9.964;2024-03-02T12:57:04;94464.50;;;14.36;59.59
29247;BME280;16272;48.188;9.964;2024-03-02T12:59:30;94464.31;;;14.04;60.23
29247;BME280;16272;48.188;9.964;2024-03-02T13:01:56;94460.78;;;14.50;59.93
29247;BME280;16272;48.188;9.964;2024-03-02T13:04:27;94449.91;;;14.45;58.02
29247;BME280;16272;48.188;9.964;2024-03-02T13:06:55;94455.69;;;14.15;58.60